Time;durP1;ratioP1;P1;durP2;ratioP2;P2;SDS_P1;SDS_P2;PMS_P1;PMS_P2;Temp;Humidity;BMP_temperature;BMP_pressure;BME280_temperature;BME280_humidity;BME280_pressure;Samples;Min_cycle;Max_cycle;Signal;HPM_P1;HPM_P2
2023/02/14 00:00:25;;;;;;;32.97;10.10;;;;;;;1.94;100.00;98138.53;5058224;28;20212;-67
2023/02/14 00:02:51;;;;;;;32.43;10.70;;;;;;;1.76;100.00;98133.44;5057944;28;20591;-68
2023/02/14 00:05:18;;;;;;;51.40;10.17;;;;;;;1.83;100.00;98124.41;5056610;28;20225;-69
2023/02/14 00:07:44;;;;;;;40.53;9.43;;;;;;;1.47;100.00;98136.66;5057426;28;20211;-68
2023/02/14 00:10:11;;;;;;;30.83;9.97;;;;;;;1.54;100.00;98124.19;5058125;28;21024;-68
2023/02/14 00:12:37;;;;;;;31.77;10.87;;;;;;;1.68;100.00;98121.75;5057185;28;20574;-66
2023/02/14 00:15:21;;;;;;;27.20;9.50;;;;;;;1.56;100.00;98123.22;5056925;28;20211;-69
2023/02/14 00:17:49;;;;;;;26.43;8.73;;;;;;;1.78;100.00;98121.19;5057302;28;21191;-66
2023/02/14 00:20:16;;;;;;;31.33;10.27;;;;;;;1.59;100.00;98119.63;5056457;28;20213;-69
2023/02/14 00:22:42;;;;;;;29.13;9.67;;;;;;;1.75;100.00;98121.38;5057570;28;20220;-67
2023/02/14 00:25:09;;;;;;;29.50;9.33;;;;;;;1.89;100.00;98113.69;5056738;28;20672;-69
2023/02/14 00:27:35;;;;;;;35.50;10.30;;;;;;;1.84;100.00;98113.09;5056750;28;20202;-67
2023/02/14 00:30:02;;;;;;;34.03;10.27;;;;;;;1.92;100.00;98113.53;5057432;28;21103;-67
2023/02/14 00:32:29;;;;;;;44.17;10.30;;;;;;;1.88;100.00;98117.22;5057282;28;20220;-67
2023/02/14 00:34:57;;;;;;;33.87;10.60;;;;;;;2.06;100.00;98111.06;5056328;28;20202;-68
2023/02/14 00:37:23;;;;;;;31.30;10.77;;;;;;;2.01;100.00;98107.84;5057235;28;20198;-68
2023/02/14 00:39:50;;;;;;;45.33;10.57;;;;;;;1.94;100.00;98114.31;5057364;28;20760;-67
2023/02/14 00:42:16;;;;;;;32.33;7.03;;;;;;;1.82;100.00;98117.56;5056800;28;20216;-68
2023/02/14 00:44:43;;;;;;;28.87;9.50;;;;;;;1.71;100.00;98125.03;5055790;28;20582;-68
2023/02/14 00:47:09;;;;;;;39.27;9.10;;;;;;;1.81;100.00;98126.25;5055919;28;20209;-65
2023/02/14 00:49:36;;;;;;;34.47;8.63;;;;;;;1.84;100.00;98131.28;5056572;28;20204;-68
2023/02/14 00:52:04;;;;;;;32.43;9.23;;;;;;;1.62;100.00;98125.50;5056003;28;20228;-68
2023/02/14 00:54:30;;;;;;;27.53;8.97;;;;;;;1.49;100.00;98124.44;5055124;28;20201;-69
2023/02/14 00:56:56;;;;;;;39.23;9.47;;;;;;;1.68;100.00;98120.00;5056080;28;20209;-66
2023/02/14 00:59:23;;;;;;;35.50;10.13;;;;;;;1.67;100.00;98120.91;5056188;28;20200;-66
2023/02/14 01:01:49;;;;;;;29.90;8.90;;;;;;;1.81;100.00;98115.88;5055530;28;20644;-67
2023/02/14 01:04:16;;;;;;;36.47;11.10;;;;;;;1.82;100.00;98120.16;5055711;28;20634;-67
2023/02/14 01:06:42;;;;;;;37.70;9.80;;;;;;;1.69;100.00;98116.47;5055604;28;20581;-68
2023/02/14 01:09:10;;;;;;;26.30;9.57;;;;;;;1.86;100.00;98119.06;5055786;28;20215;-66
2023/02/14 01:11:36;;;;;;;32.17;9.13;;;;;;;1.84;100.00;98120.91;5056104;28;20231;-68
2023/02/14 01:14:03;;;;;;;33.20;9.47;;;;;;;1.83;100.00;98114.88;5054376;28;20736;-69
2023/02/14 01:16:30;;;;;;;29.60;10.67;;;;;;;1.70;100.00;98118.16;5055740;28;20312;-68
2023/02/14 01:18:59;;;;;;;28.47;10.70;;;;;;;1.89;100.00;98118.91;5055770;28;20208;-68
2023/02/14 01:21:27;;;;;;;28.83;9.40;;;;;;;1.91;100.00;98120.50;5055847;28;20224;-68
2023/02/14 01:23:56;;;;;;;37.70;10.30;;;;;;;1.76;100.00;98115.25;5055243;28;20202;-68
2023/02/14 01:26:25;;;;;;;56.50;8.57;;;;;;;1.82;100.00;98112.34;5056009;28;20206;-69
2023/02/14 01:28:52;;;;;;;30.00;8.30;;;;;;;1.73;100.00;98120.59;5056375;28;20201;-69
2023/02/14 01:31:21;;;;;;;25.00;8.97;;;;;;;1.72;100.00;98123.28;5055492;28;20228;-66
2023/02/14 01:33:49;;;;;;;34.87;9.57;;;;;;;1.67;100.00;98125.25;5054874;28;20509;-67
2023/02/14 01:36:18;;;;;;;41.20;9.57;;;;;;;1.67;100.00;98131.31;5056225;28;20204;-69
2023/02/14 01:38:45;;;;;;;36.97;9.03;;;;;;;1.55;100.00;98134.50;5055588;28;20200;-67
2023/02/14 01:41:12;;;;;;;32.13;9.70;;;;;;;1.59;100.00;98136.06;5055589;28;20716;-68
2023/02/14 01:43:55;;;;;;;38.37;9.70;;;;;;;1.80;100.00;98123.75;5054595;28;20201;-65
2023/02/14 01:46:23;;;;;;;44.73;10.27;;;;;;;1.53;100.00;98123.38;5055732;28;20205;-69
2023/02/14 01:48:51;;;;;;;27.63;9.03;;;;;;;1.70;100.00;98125.13;5055772;28;20693;-68
2023/02/14 01:51:19;;;;;;;26.97;8.63;;;;;;;1.75;100.00;98128.34;5055671;28;20491;-67
2023/02/14 01:53:47;;;;;;;35.67;8.87;;;;;;;1.67;100.00;98125.25;5054601;28;20224;-67
2023/02/14 01:56:19;;;;;;;19.67;7.97;;;;;;;1.85;100.00;98117.38;5055211;28;20211;-68
2023/02/14 01:58:49;;;;;;;26.23;9.90;;;;;;;1.87;100.00;98118.13;5055787;28;20231;-69
2023/02/14 02:01:18;;;;;;;30.70;9.67;;;;;;;2.01;100.00;98113.06;5055736;28;20247;-69
2023/02/14 02:03:48;;;;;;;36.57;10.83;;;;;;;1.88;100.00;98106.81;5054740;28;20200;-67
2023/02/14 02:06:19;;;;;;;20.30;7.63;;;;;;;1.91;100.00;98117.91;5055144;28;20861;-68
2023/02/14 02:08:54;;;;;;;25.43;8.90;;;;;;;1.85;100.00;98117.38;5055667;28;20587;-69
2023/02/14 02:11:20;;;;;;;26.97;9.33;;;;;;;1.80;100.00;98126.34;5055158;28;20219;-67
2023/02/14 02:13:47;;;;;;;40.80;8.97;;;;;;;1.67;100.00;98131.31;5055088;28;20231;-69
2023/02/14 02:16:27;;;;;;;30.80;9.47;;;;;;;1.90;100.00;98128.38;5055861;28;20216;-69
2023/02/14 02:19:08;;;;;;;30.27;10.37;;;;;;;1.81;100.00;98126.25;5055264;28;20259;-69
2023/02/14 02:22:00;;;;;;;28.70;8.97;;;;;;;1.79;100.00;98128.09;5055502;28;20804;-66
2023/02/14 02:24:34;;;;;;;24.90;9.13;;;;;;;1.91;100.00;98122.28;5053848;28;20684;-69
2023/02/14 02:27:27;;;;;;;25.33;8.40;;;;;;;1.94;100.00;98122.09;5058635;28;20215;-68
2023/02/14 02:30:24;;;;;;;24.80;8.77;;;;;;;1.67;100.00;98115.72;5055763;28;20211;-70
2023/02/14 02:33:25;;;;;;;25.33;9.37;;;;;;;1.84;100.00;98108.72;5058497;28;20498;-68
2023/02/14 02:36:12;;;;;;;30.50;9.27;;;;;;;1.94;100.00;98109.94;5058512;28;20211;-66
2023/02/14 02:38:56;;;;;;;26.30;9.13;;;;;;;1.82;100.00;98109.75;5058845;28;20655;-68
2023/02/14 02:41:32;;;;;;;33.90;9.17;;;;;;;1.88;100.00;98107.69;5058611;28;20231;-67
2023/02/14 02:44:09;;;;;;;24.97;8.77;;;;;;;1.75;100.00;98100.56;5057719;28;20210;-69
2023/02/14 02:46:48;;;;;;;38.10;9.37;;;;;;;1.76;100.00;98099.66;5058727;28;20209;-69
2023/02/14 02:55:00;;;;;;;22.40;7.77;;;;;;;1.53;100.00;98102.59;5057491;28;20242;-69
2023/02/14 02:57:32;;;;;;;27.47;9.17;;;;;;;1.53;100.00;98097.41;5058429;28;20208;-70
2023/02/14 03:00:00;;;;;;;19.37;7.50;;;;;;;1.19;100.00;98098.31;5058636;28;20215;-67
2023/02/14 03:02:30;;;;;;;18.83;7.03;;;;;;;1.40;100.00;98096.34;5058144;28;20228;-67
2023/02/14 03:05:04;;;;;;;27.00;8.30;;;;;;;1.28;100.00;98098.69;5057595;28;20479;-69
2023/02/14 03:07:35;;;;;;;20.43;7.40;;;;;;;1.16;100.00;98101.91;5058421;28;20873;-69
2023/02/14 03:10:07;;;;;;;22.80;9.03;;;;;;;1.35;100.00;98105.25;5058134;28;20835;-68
2023/02/14 03:13:09;;;;;;;22.53;8.03;;;;;;;1.54;100.00;98106.88;5057877;28;20580;-69
2023/02/14 03:16:12;;;;;;;23.13;8.57;;;;;;;1.52;100.00;98108.69;5057439;28;20204;-69
2023/02/14 03:18:48;;;;;;;28.93;8.43;;;;;;;1.50;100.00;98109.69;5044564;28;20571;-69
2023/02/14 03:21:24;;;;;;;37.83;8.33;;;;;;;1.63;100.00;98106.41;5055135;28;20231;-70
2023/02/14 03:23:57;;;;;;;23.03;8.77;;;;;;;1.61;100.00;98104.81;5057659;28;20261;-69
2023/02/14 03:26:33;;;;;;;31.57;8.77;;;;;;;1.72;100.00;98121.53;5057773;28;20236;-68
2023/02/14 03:29:07;;;;;;;33.93;8.80;;;;;;;1.75;100.00;98115.34;5058022;28;20227;-70
2023/02/14 03:31:41;;;;;;;29.30;8.97;;;;;;;1.61;100.00;98117.78;5058401;28;20246;-67
2023/02/14 03:34:12;;;;;;;28.37;9.30;;;;;;;1.71;100.00;98114.66;5056576;28;20709;-70
2023/02/14 03:36:44;;;;;;;30.97;8.67;;;;;;;1.66;100.00;98124.44;5057932;28;20214;-69
2023/02/14 03:39:19;;;;;;;22.53;8.00;;;;;;;1.76;100.00;98119.59;5058952;28;20295;-69
2023/02/14 03:41:51;;;;;;;28.17;8.63;;;;;;;1.86;100.00;98111.28;5057373;28;20225;-69
2023/02/14 03:44:24;;;;;;;25.47;9.13;;;;;;;1.85;100.00;98106.97;5056417;28;20201;-70
2023/02/14 03:46:53;;;;;;;23.07;8.93;;;;;;;1.90;100.00;98118.81;5057817;28;20295;-69
2023/02/14 03:49:24;;;;;;;24.90;8.87;;;;;;;1.89;100.00;98116.31;5058428;28;20202;-67
2023/02/14 03:51:54;;;;;;;23.80;8.70;;;;;;;1.63;100.00;98121.13;5057755;28;20414;-68
2023/02/14 03:54:25;;;;;;;22.30;8.43;;;;;;;1.54;100.00;98114.66;5056688;28;20617;-68
2023/02/14 03:56:57;;;;;;;24.50;8.13;;;;;;;1.63;100.00;98110.75;5057591;28;20219;-68
2023/02/14 03:59:26;;;;;;;26.63;8.20;;;;;;;1.71;100.00;98114.66;5057296;28;20211;-70
2023/02/14 04:01:56;;;;;;;30.77;9.37;;;;;;;1.57;100.00;98106.72;5057217;28;20220;-69
2023/02/14 04:04:27;;;;;;;32.73;9.43;;;;;;;1.62;100.00;98109.91;5056433;28;20590;-69
2023/02/14 04:06:53;;;;;;;25.63;8.87;;;;;;;1.54;100.00;98106.00;5057214;28;20213;-68
2023/02/14 04:09:21;;;;;;;27.57;8.80;;;;;;;1.53;100.00;98115.56;5057288;28;20681;-69
2023/02/14 04:11:49;;;;;;;24.13;7.63;;;;;;;1.47;100.00;98115.88;5056943;28;20231;-70
2023/02/14 04:14:16;;;;;;;24.60;8.30;;;;;;;1.47;100.00;98118.47;5056494;28;20228;-67
2023/02/14 04:19:23;;;;;;;24.77;8.10;;;;;;;1.32;100.00;98111.47;5055930;28;20199;-70
2023/02/14 04:21:50;;;;;;;27.90;8.13;;;;;;;1.38;100.00;98103.34;5057254;28;20619;-69
2023/02/14 04:24:17;;;;;;;28.50;8.23;;;;;;;1.42;100.00;98111.84;5056347;28;20291;-70
2023/02/14 04:27:09;;;;;;;21.73;9.17;;;;;;;1.36;100.00;98120.78;5057158;28;20504;-69
2023/02/14 04:29:36;;;;;;;23.20;7.77;;;;;;;1.40;100.00;98116.25;5056806;28;20197;-70
2023/02/14 04:32:03;;;;;;;21.87;8.10;;;;;;;1.50;100.00;98114.88;5056604;28;20256;-69
2023/02/14 04:34:29;;;;;;;24.13;7.63;;;;;;;1.21;100.00;98112.91;5056073;28;20223;-67
2023/02/14 04:36:55;;;;;;;32.93;9.17;;;;;;;1.33;100.00;98109.69;5056566;28;20204;-70
2023/02/14 04:39:22;;;;;;;21.07;8.03;;;;;;;1.43;100.00;98106.56;5056542;28;20204;-69
2023/02/14 04:41:50;;;;;;;27.83;8.63;;;;;;;1.41;100.00;98110.16;5056487;28;20239;-69
2023/02/14 04:44:16;;;;;;;26.73;8.57;;;;;;;1.26;100.00;98111.75;5055825;28;20216;-69
2023/02/14 04:46:43;;;;;;;27.17;9.37;;;;;;;1.18;100.00;98105.25;5056685;28;20583;-70
2023/02/14 04:49:09;;;;;;;37.10;9.77;;;;;;;1.08;100.00;98108.38;5056417;28;20661;-69
2023/02/14 04:51:36;;;;;;;25.07;9.70;;;;;;;1.01;100.00;98110.44;5055640;28;20224;-70
2023/02/14 04:54:02;;;;;;;17.90;6.97;;;;;;;1.10;100.00;98110.00;5055909;28;20228;-68
2023/02/14 04:56:28;;;;;;;23.20;8.07;;;;;;;1.12;100.00;98102.13;5056261;28;20282;-67
2023/02/14 04:58:56;;;;;;;26.00;8.13;;;;;;;1.11;100.00;98105.63;5056012;28;20569;-69
2023/02/14 05:01:23;;;;;;;19.00;7.87;;;;;;;1.11;100.00;98101.28;5055994;28;20227;-69
2023/02/14 05:03:49;;;;;;;18.13;7.00;;;;;;;1.19;100.00;98101.75;5056075;28;20197;-70
2023/02/14 05:06:15;;;;;;;18.83;7.53;;;;;;;1.28;100.00;98090.91;5056107;28;20212;-69
2023/02/14 05:08:42;;;;;;;25.20;8.43;;;;;;;1.32;100.00;98085.50;5055924;28;20208;-70
2023/02/14 05:11:08;;;;;;;26.43;8.13;;;;;;;1.29;100.00;98090.00;5056292;28;20229;-70
2023/02/14 05:13:35;;;;;;;24.33;9.40;;;;;;;1.45;100.00;98083.09;5055679;28;20252;-69
2023/02/14 05:16:02;;;;;;;25.73;8.60;;;;;;;1.58;100.00;98086.75;5056018;28;20672;-70
2023/02/14 05:18:29;;;;;;;24.60;8.00;;;;;;;1.50;100.00;98083.72;5055872;28;20571;-68
2023/02/14 05:20:55;;;;;;;26.03;8.40;;;;;;;1.45;100.00;98091.75;5055667;28;20782;-68
2023/02/14 05:23:22;;;;;;;23.07;8.70;;;;;;;1.48;100.00;98085.56;5056092;28;20192;-70
2023/02/14 05:25:49;;;;;;;22.77;8.53;;;;;;;1.62;100.00;98085.72;5055718;28;20206;-69
2023/02/14 05:28:15;;;;;;;26.50;10.53;;;;;;;1.56;100.00;98089.44;5055764;28;20207;-69
2023/02/14 05:30:42;;;;;;;29.53;9.53;;;;;;;1.54;100.00;98086.09;5055541;28;20639;-70
2023/02/14 05:33:09;;;;;;;23.93;9.03;;;;;;;1.72;100.00;98081.69;5056221;28;20204;-70
2023/02/14 05:35:36;;;;;;;26.20;9.43;;;;;;;1.49;100.00;98075.09;5055192;28;20206;-69
2023/02/14 05:38:03;;;;;;;29.03;8.67;;;;;;;1.53;100.00;98083.59;5055608;28;20208;-70
2023/02/14 05:40:29;;;;;;;24.50;8.50;;;;;;;1.51;100.00;98085.41;5055875;28;20218;-70
2023/02/14 05:42:56;;;;;;;28.07;9.20;;;;;;;1.42;100.00;98085.88;5055299;28;20226;-70
2023/02/14 05:45:23;;;;;;;25.13;8.97;;;;;;;1.50;100.00;98086.31;5055033;28;20200;-68
2023/02/14 05:47:49;;;;;;;20.37;7.90;;;;;;;1.46;100.00;98077.81;5055628;28;20201;-70
2023/02/14 05:50:18;;;;;;;20.00;8.93;;;;;;;1.55;100.00;98092.94;5055518;28;20576;-67
2023/02/14 05:52:44;;;;;;;31.20;8.90;;;;;;;1.45;100.00;98101.28;5055273;28;20735;-68
2023/02/14 05:55:11;;;;;;;21.17;8.23;;;;;;;1.39;100.00;98094.66;5055012;28;20622;-70
2023/02/14 05:57:38;;;;;;;35.13;9.57;;;;;;;1.37;100.00;98098.25;5055711;28;20204;-69
2023/02/14 06:00:06;;;;;;;26.47;8.13;;;;;;;1.20;100.00;98109.47;5055644;28;20231;-67
2023/02/14 06:02:33;;;;;;;32.03;8.83;;;;;;;1.24;100.00;98100.59;5055531;28;20220;-67
2023/02/14 06:04:59;;;;;;;22.43;9.10;;;;;;;1.06;100.00;98098.06;5054722;28;20216;-67
2023/02/14 06:07:27;;;;;;;27.70;8.67;;;;;;;1.29;100.00;98095.19;5059569;28;20894;-67
2023/02/14 06:09:53;;;;;;;26.30;9.33;;;;;;;1.21;100.00;98090.38;5060095;28;20201;-70
2023/02/14 06:12:20;;;;;;;19.03;7.70;;;;;;;1.23;100.00;98095.50;5059549;28;20242;-69
2023/02/14 06:14:46;;;;;;;33.67;9.43;;;;;;;1.09;100.00;98103.09;5059501;28;20237;-67
2023/02/14 06:17:13;;;;;;;26.33;8.77;;;;;;;1.01;100.00;98104.41;5060046;28;20241;-69
2023/02/14 06:19:39;;;;;;;20.80;6.77;;;;;;;1.08;100.00;98095.41;5059911;28;20208;-70
2023/02/14 06:22:06;;;;;;;21.83;8.67;;;;;;;1.14;100.00;98101.13;5059804;28;20231;-67
2023/02/14 06:24:33;;;;;;;25.80;9.20;;;;;;;1.13;100.00;98098.63;5059593;28;20227;-70
2023/02/14 06:27:00;;;;;;;25.00;8.07;;;;;;;1.06;100.00;98097.22;5059805;28;20208;-70
2023/02/14 06:29:27;;;;;;;20.53;8.97;;;;;;;1.20;100.00;98108.63;5059773;28;20685;-70
2023/02/14 06:31:53;;;;;;;29.90;8.93;;;;;;;1.17;100.00;98108.75;5059809;28;21089;-70
2023/02/14 06:34:20;;;;;;;20.73;7.37;;;;;;;1.13;100.00;98107.22;5058551;28;20223;-67
2023/02/14 06:36:46;;;;;;;20.30;8.10;;;;;;;1.19;100.00;98113.91;5059569;28;20228;-67
2023/02/14 06:39:13;;;;;;;30.93;8.03;;;;;;;0.96;100.00;98111.59;5059634;28;20209;-70
2023/02/14 06:41:40;;;;;;;30.23;9.03;;;;;;;1.30;100.00;98102.91;5059472;28;20228;-69
2023/02/14 06:44:09;;;;;;;23.63;8.63;;;;;;;1.25;100.00;98099.69;5058768;28;20216;-66
2023/02/14 06:46:35;;;;;;;24.20;8.77;;;;;;;1.03;100.00;98111.22;5059751;28;20201;-70
2023/02/14 06:49:02;;;;;;;29.17;9.23;;;;;;;0.98;100.00;98105.41;5058684;28;20608;-67
2023/02/14 06:51:28;;;;;;;29.60;10.13;;;;;;;1.24;100.00;98107.56;5059427;28;20224;-69
2023/02/14 06:53:54;;;;;;;29.17;9.87;;;;;;;1.16;100.00;98103.66;5060620;28;20220;-70
2023/02/14 06:56:21;;;;;;;21.60;8.83;;;;;;;1.25;100.00;98102.28;5060394;28;20204;-70
2023/02/14 06:58:49;;;;;;;25.43;8.37;;;;;;;1.14;100.00;98106.31;5059386;28;20287;-69
2023/02/14 07:01:15;;;;;;;30.07;9.97;;;;;;;1.13;100.00;98109.81;5059322;28;20224;-69
2023/02/14 07:03:42;;;;;;;27.93;9.17;;;;;;;1.23;100.00;98111.94;5058249;28;20201;-67
2023/02/14 07:06:08;;;;;;;26.17;8.90;;;;;;;1.20;100.00;98112.06;5059176;28;20211;-67
2023/02/14 07:08:34;;;;;;;24.93;9.80;;;;;;;1.19;100.00;98108.72;5058712;28;20213;-69
2023/02/14 07:11:01;;;;;;;24.47;9.63;;;;;;;1.27;100.00;98102.19;5059281;28;20224;-69
2023/02/14 07:13:27;;;;;;;25.47;8.10;;;;;;;1.16;100.00;98104.50;5058752;28;20673;-70
2023/02/14 07:15:55;;;;;;;22.30;8.03;;;;;;;1.36;100.00;98102.59;5058264;28;20231;-70
2023/02/14 07:18:21;;;;;;;19.57;6.93;;;;;;;1.01;100.00;98102.66;5057383;28;20201;-70
2023/02/14 07:20:49;;;;;;;23.17;8.13;;;;;;;0.99;100.00;98101.03;5058095;28;20205;-68
2023/02/14 07:23:15;;;;;;;27.33;7.83;;;;;;;0.83;100.00;98089.72;5059045;28;20200;-70
2023/02/14 07:25:42;;;;;;;28.00;8.60;;;;;;;1.01;100.00;98096.63;5057974;28;20204;-69
2023/02/14 07:28:08;;;;;;;21.23;8.03;;;;;;;1.20;100.00;98096.47;5058695;28;20209;-68
2023/02/14 07:30:35;;;;;;;26.57;9.30;;;;;;;1.25;100.00;98099.69;5058728;28;20668;-68
2023/02/14 07:33:03;;;;;;;22.33;8.90;;;;;;;1.48;100.00;98098.56;5058171;28;20227;-69
2023/02/14 07:35:29;;;;;;;22.77;9.13;;;;;;;1.38;100.00;98099.94;5058109;28;20595;-68
2023/02/14 07:37:56;;;;;;;31.73;9.83;;;;;;;1.44;100.00;98110.00;5058360;28;20217;-69
2023/02/14 07:40:23;;;;;;;27.30;9.67;;;;;;;1.48;100.00;98106.34;5058141;28;20798;-67
2023/02/14 07:42:53;;;;;;;24.53;9.23;;;;;;;1.34;100.00;98098.41;5058496;28;20285;-70
2023/02/14 07:45:20;;;;;;;28.93;10.30;;;;;;;1.39;100.00;98106.81;5058018;28;20224;-67
2023/02/14 07:47:47;;;;;;;32.37;11.23;;;;;;;1.43;100.00;98105.72;5058103;28;20212;-69
2023/02/14 07:50:15;;;;;;;21.57;8.47;;;;;;;1.42;100.00;98106.66;5057842;28;20658;-70
2023/02/14 07:52:42;;;;;;;25.87;9.13;;;;;;;1.46;100.00;98109.00;5058714;28;21302;-67
2023/02/14 07:55:09;;;;;;;29.73;10.63;;;;;;;1.47;100.00;98102.06;5057666;28;20224;-70
2023/02/14 07:57:35;;;;;;;26.50;8.40;;;;;;;1.46;100.00;98106.41;5057770;28;20639;-70
2023/02/14 08:00:03;;;;;;;30.17;9.13;;;;;;;1.47;100.00;98104.66;5058068;28;20204;-68
2023/02/14 08:02:30;;;;;;;30.73;9.00;;;;;;;1.44;100.00;98095.25;5058184;28;20247;-70
2023/02/14 08:04:56;;;;;;;29.33;9.37;;;;;;;1.47;100.00;98097.69;5057689;28;20205;-68
2023/02/14 08:07:24;;;;;;;29.63;9.17;;;;;;;1.65;100.00;98098.53;5057648;28;20316;-70
2023/02/14 08:09:50;;;;;;;28.70;9.30;;;;;;;1.41;100.00;98097.16;5057681;28;20200;-67
2023/02/14 08:17:41;;;;;;;22.57;8.37;;;;;;;1.23;100.00;98095.50;5056906;28;20322;-70
2023/02/14 08:20:08;;;;;;;27.83;9.70;;;;;;;1.20;100.00;98090.47;5057583;28;20215;-70
2023/02/14 08:22:36;;;;;;;25.40;9.00;;;;;;;1.48;100.00;98085.56;5057135;28;20235;-68
2023/02/14 08:25:02;;;;;;;24.60;8.53;;;;;;;1.49;100.00;98095.00;5056634;28;20200;-69
2023/02/14 08:27:29;;;;;;;34.77;10.70;;;;;;;1.48;100.00;98090.75;5057605;28;20196;-70
2023/02/14 08:29:55;;;;;;;30.30;10.17;;;;;;;1.64;100.00;98081.25;5057868;28;20208;-72
2023/02/14 08:32:22;;;;;;;28.90;10.00;;;;;;;1.78;100.00;98084.81;5057387;28;20228;-71
2023/02/14 08:34:48;;;;;;;23.83;9.00;;;;;;;1.83;100.00;98083.69;5057055;28;20220;-72
2023/02/14 08:37:14;;;;;;;28.43;10.03;;;;;;;1.57;100.00;98087.69;5057437;28;20200;-70
2023/02/14 08:39:42;;;;;;;29.93;9.53;;;;;;;1.48;100.00;98086.41;5057724;28;20204;-70
2023/02/14 08:42:09;;;;;;;19.90;6.23;;;;;;;1.39;100.00;98086.03;5057571;28;20232;-70
2023/02/14 08:44:35;;;;;;;24.63;9.47;;;;;;;1.38;100.00;98079.16;5058331;28;20211;-68
2023/02/14 08:47:02;;;;;;;28.43;7.70;;;;;;;1.39;100.00;98086.84;5058703;28;20208;-67
2023/02/14 08:49:28;;;;;;;16.97;7.00;;;;;;;1.37;100.00;98080.88;5059378;28;20200;-71
2023/02/14 08:51:55;;;;;;;23.10;8.30;;;;;;;1.48;100.00;98089.00;5059092;28;20966;-70
2023/02/14 08:54:21;;;;;;;25.40;9.93;;;;;;;1.25;100.00;98080.69;5059067;28;20265;-68
2023/02/14 08:56:49;;;;;;;30.47;8.60;;;;;;;1.41;100.00;98073.78;5059562;28;20201;-70
2023/02/14 08:59:16;;;;;;;23.23;7.97;;;;;;;1.23;100.00;98072.97;5059674;28;20205;-69
2023/02/14 09:01:42;;;;;;;22.90;8.63;;;;;;;1.50;100.00;98078.53;5059251;28;20224;-69
2023/02/14 09:04:09;;;;;;;26.67;9.63;;;;;;;1.39;100.00;98071.28;5059001;28;20212;-70
2023/02/14 09:06:37;;;;;;;26.80;9.37;;;;;;;1.72;100.00;98066.97;5059658;28;20668;-71
2023/02/14 09:09:04;;;;;;;27.77;10.03;;;;;;;1.47;100.00;98068.28;5058990;28;20716;-67
2023/02/14 09:11:31;;;;;;;27.03;9.80;;;;;;;1.68;100.00;98069.78;5059222;28;20217;-69
2023/02/14 09:13:58;;;;;;;21.10;7.83;;;;;;;1.43;100.00;98074.56;5058539;28;20209;-68
2023/02/14 09:16:25;;;;;;;29.47;9.50;;;;;;;1.59;100.00;98067.66;5058913;28;20224;-67
2023/02/14 09:18:53;;;;;;;35.70;12.67;;;;;;;1.67;100.00;98062.91;5058809;28;20204;-67
2023/02/14 09:21:22;;;;;;;25.30;10.10;;;;;;;1.86;100.00;98067.91;5059014;28;20842;-70
2023/02/14 09:23:49;;;;;;;30.53;10.17;;;;;;;1.94;100.00;98070.13;5059683;28;20208;-68
2023/02/14 09:26:16;;;;;;;29.00;10.27;;;;;;;1.98;100.00;98066.44;5060485;28;20201;-67
2023/02/14 09:28:43;;;;;;;29.47;9.27;;;;;;;2.08;100.00;98071.06;5058968;28;20225;-68
2023/02/14 09:31:14;;;;;;;26.80;10.03;;;;;;;2.13;100.00;98066.44;5058225;28;20221;-69
2023/02/14 09:33:41;;;;;;;34.33;9.60;;;;;;;2.22;100.00;98072.94;5057857;28;20289;-68
2023/02/14 09:38:52;;;;;;;27.07;9.53;;;;;;;2.17;100.00;98069.75;5059858;28;20221;-67
2023/02/14 09:41:43;;;;;;;21.30;8.73;;;;;;;1.70;100.00;98070.56;5059112;28;20224;-69
2023/02/14 09:44:16;;;;;;;26.27;9.47;;;;;;;1.92;100.00;98067.59;5059123;28;20204;-69
2023/02/14 09:46:50;;;;;;;24.23;8.00;;;;;;;1.70;100.00;98073.97;5060537;28;20204;-68
2023/02/14 09:49:30;;;;;;;29.77;9.20;;;;;;;1.84;100.00;98079.31;5060158;28;20208;-69
2023/02/14 09:51:57;;;;;;;27.00;10.13;;;;;;;1.93;100.00;98079.66;5059553;28;20232;-68
2023/02/14 09:54:27;;;;;;;22.50;8.60;;;;;;;1.82;100.00;98075.97;5057762;28;20624;-69
2023/02/14 09:56:59;;;;;;;29.37;10.23;;;;;;;1.91;100.00;98083.28;5058563;28;20418;-66
2023/02/14 09:59:33;;;;;;;30.63;10.27;;;;;;;2.11;100.00;98072.66;5057897;28;20211;-67
2023/02/14 10:02:18;;;;;;;38.80;13.13;;;;;;;2.20;100.00;98064.34;5056627;28;20220;-68
2023/02/14 10:04:57;;;;;;;22.50;9.13;;;;;;;1.88;100.00;98070.44;5056248;28;20262;-69
2023/02/14 10:07:31;;;;;;;26.63;9.23;;;;;;;2.00;100.00;98072.41;5057186;28;20213;-67
2023/02/14 10:10:03;;;;;;;25.93;10.00;;;;;;;2.16;100.00;98066.28;5057791;28;20209;-69
2023/02/14 10:12:33;;;;;;;23.90;9.73;;;;;;;1.87;100.00;98073.94;5057405;28;21193;-69
2023/02/14 10:15:04;;;;;;;27.57;10.30;;;;;;;1.61;100.00;98071.03;5056494;28;20232;-69
2023/02/14 10:17:38;;;;;;;27.47;9.73;;;;;;;1.95;100.00;98064.00;5057354;28;20205;-67
2023/02/14 10:20:14;;;;;;;27.50;9.43;;;;;;;2.05;100.00;98065.16;5058617;28;20208;-70
2023/02/14 10:22:45;;;;;;;28.63;9.17;;;;;;;2.20;100.00;98061.75;5057765;28;20230;-66
2023/02/14 10:25:20;;;;;;;30.33;10.97;;;;;;;2.29;100.00;98053.47;5056127;28;20206;-70
2023/02/14 10:27:48;;;;;;;38.27;12.17;;;;;;;2.28;100.00;98055.22;5056573;28;20205;-67
2023/02/14 10:30:17;;;;;;;28.40;10.47;;;;;;;2.55;100.00;98053.72;5056498;28;20212;-70
2023/02/14 10:32:47;;;;;;;26.93;10.27;;;;;;;2.76;100.00;98052.50;5057097;28;20217;-70
2023/02/14 10:35:29;;;;;;;28.10;10.27;;;;;;;2.95;100.00;98047.94;5056643;28;20231;-68
2023/02/14 10:38:04;;;;;;;30.53;10.77;;;;;;;3.03;100.00;98051.81;5058455;28;20220;-69
2023/02/14 10:41:03;;;;;;;33.43;10.80;;;;;;;2.96;100.00;98053.06;5058510;28;20203;-69
2023/02/14 10:43:36;;;;;;;32.33;11.00;;;;;;;2.93;100.00;98039.38;5058609;28;20211;-68
2023/02/14 10:46:13;;;;;;;34.93;12.27;;;;;;;3.13;100.00;98039.91;5057751;28;20203;-68
2023/02/14 10:48:49;;;;;;;30.87;11.60;;;;;;;2.95;100.00;98038.38;5057268;28;20216;-68
2023/02/14 10:51:21;;;;;;;30.03;10.17;;;;;;;3.10;100.00;98050.53;5057782;28;20230;-70
2023/02/14 10:53:58;;;;;;;28.23;10.43;;;;;;;3.15;100.00;98046.72;5062447;28;20210;-68
2023/02/14 10:56:32;;;;;;;28.93;9.67;;;;;;;3.23;100.00;98038.47;5062739;28;20221;-68
2023/02/14 10:59:07;;;;;;;28.57;9.93;;;;;;;3.36;100.00;98029.84;5061832;28;20207;-68
2023/02/14 11:01:34;;;;;;;26.10;10.13;;;;;;;3.18;100.00;98030.94;5061935;28;20223;-68
2023/02/14 11:04:05;;;;;;;32.57;12.07;;;;;;;3.27;100.00;98025.19;5059710;28;20215;-69
2023/02/14 11:06:32;;;;;;;26.93;9.93;;;;;;;3.34;100.00;98018.66;5059478;28;20194;-68
2023/02/14 11:08:59;;;;;;;30.20;11.07;;;;;;;3.46;100.00;98014.50;5060336;28;20688;-69
2023/02/14 11:11:30;;;;;;;28.37;11.40;;;;;;;3.33;100.00;98008.34;5061270;28;20222;-69
2023/02/14 11:13:56;;;;;;;30.30;11.13;;;;;;;3.14;100.00;98005.13;5061381;28;20202;-69
2023/02/14 11:16:30;;;;;;;27.17;11.33;;;;;;;2.97;100.00;98000.06;5062723;28;21026;-69
2023/02/14 11:19:18;;;;;;;21.87;8.87;;;;;;;3.19;100.00;98003.09;5065294;28;20205;-70
2023/02/14 11:21:47;;;;;;;26.83;9.67;;;;;;;2.99;100.00;98008.63;5064962;28;20227;-68
2023/02/14 11:24:17;;;;;;;29.40;10.67;;;;;;;2.90;100.00;97996.13;5061086;28;20202;-66
2023/02/14 11:26:46;;;;;;;31.50;12.00;;;;;;;3.05;100.00;97997.84;5062833;28;20734;-68
2023/02/14 11:29:16;;;;;;;32.30;11.20;;;;;;;3.29;100.00;97993.81;5062577;28;20260;-69
2023/02/14 11:31:43;;;;;;;26.77;10.50;;;;;;;3.41;100.00;97985.28;5061482;28;20247;-68
2023/02/14 11:34:26;;;;;;;36.03;12.20;;;;;;;3.82;100.00;97979.25;5060491;28;20203;-69
2023/02/14 11:36:52;;;;;;;29.57;10.73;;;;;;;3.64;100.00;97983.81;5061970;28;20732;-68
2023/02/14 11:39:28;;;;;;;27.50;11.03;;;;;;;3.99;100.00;97974.66;5063289;28;20205;-67
2023/02/14 11:41:57;;;;;;;30.20;11.23;;;;;;;3.72;100.00;97975.53;5062803;28;20301;-68
2023/02/14 11:44:26;;;;;;;26.60;9.93;;;;;;;3.80;100.00;97973.28;5061678;28;20212;-68
2023/02/14 11:46:54;;;;;;;38.47;12.20;;;;;;;3.47;100.00;97977.09;5062771;28;20207;-69
2023/02/14 11:49:29;;;;;;;27.57;10.10;;;;;;;3.48;100.00;97971.78;5060578;28;20242;-68
2023/02/14 11:51:57;;;;;;;24.43;9.77;;;;;;;3.84;100.00;97948.69;5060723;28;20329;-67